sensor_id;sensor_type;location;lat;lon;timestamp;temperature;humidity
13186;DHT22;6658;53.080;7.428;2023-07-13T00:08:37;15.40;99.90
13186;DHT22;6658;53.080;7.428;2023-07-13T00:30:27;15.00;99.90
13186;DHT22;6658;53.080;7.428;2023-07-13T01:01:24;14.80;99.90
13186;DHT22;6658;53.080;7.428;2023-07-13T01:43:22;15.00;99.90
13186;DHT22;6658;53.080;7.428;2023-07-13T01:46:44;15.00;99.90
13186;DHT22;6658;53.080;7.428;2023-07-13T01:49:55;15.10;99.90
13186;DHT22;6658;53.080;7.428;2023-07-13T01:56:16;15.30;99.90
13186;DHT22;6658;53.080;7.428;2023-07-13T02:10:07;15.50;99.90
13186;DHT22;6658;53.080;7.428;2023-07-13T02:12:11;15.60;99.90
13186;DHT22;6658;53.080;7.428;2023-07-13T02:18:23;15.60;99.90
13186;DHT22;6658;53.080;7.428;2023-07-13T02:21:15;15.60;99.90
13186;DHT22;6658;53.080;7.428;2023-07-13T02:24:03;15.60;99.90
13186;DHT22;6658;53.080;7.428;2023-07-13T02:27:14;15.60;99.90
13186;DHT22;6658;53.080;7.428;2023-07-13T02:29:42;15.70;99.90
13186;DHT22;6658;53.080;7.428;2023-07-13T02:32:20;15.70;99.90
13186;DHT22;6658;53.080;7.428;2023-07-13T02:35:05;15.70;99.90
13186;DHT22;6658;53.080;7.428;2023-07-13T02:37:33;15.70;99.90
13186;DHT22;6658;53.080;7.428;2023-07-13T02:40:07;15.70;99.90
13186;DHT22;6658;53.080;7.428;2023-07-13T02:50:13;15.70;99.90
13186;DHT22;6658;53.080;7.428;2023-07-13T02:53:11;15.70;99.90
13186;DHT22;6658;53.080;7.428;2023-07-13T03:03:55;15.70;99.90
13186;DHT22;6658;53.080;7.428;2023-07-13T03:06:52;15.70;99.90
13186;DHT22;6658;53.080;7.428;2023-07-13T03:16:34;15.70;99.90
13186;DHT22;6658;53.080;7.428;2023-07-13T03:32:26;15.80;99.90
13186;DHT22;6658;53.080;7.428;2023-07-13T03:45:30;15.80;99.90
13186;DHT22;6658;53.080;7.428;2023-07-13T04:05:42;16.00;99.90
13186;DHT22;6658;53.080;7.428;2023-07-13T04:08:08;16.10;99.90
13186;DHT22;6658;53.080;7.428;2023-07-13T04:14:08;16.20;99.90
13186;DHT22;6658;53.080;7.428;2023-07-13T04:16:49;16.20;99.90
13186;DHT22;6658;53.080;7.428;2023-07-13T04:23:01;16.30;99.90
13186;DHT22;6658;53.080;7.428;2023-07-13T04:25:43;16.30;99.90
13186;DHT22;6658;53.080;7.428;2023-07-13T04:28:23;16.40;99.90
13186;DHT22;6658;53.080;7.428;2023-07-13T04:38:10;16.50;99.90
13186;DHT22;6658;53.080;7.428;2023-07-13T04:40:37;16.50;99.90
13186;DHT22;6658;53.080;7.428;2023-07-13T04:50:43;16.60;99.90
13186;DHT22;6658;53.080;7.428;2023-07-13T04:53:09;16.70;99.90
13186;DHT22;6658;53.080;7.428;2023-07-13T04:56:22;16.70;99.90
13186;DHT22;6658;53.080;7.428;2023-07-13T04:58:54;16.70;99.90
13186;DHT22;6658;53.080;7.428;2023-07-13T05:01:28;16.70;99.90
13186;DHT22;6658;53.080;7.428;2023-07-13T05:11:01;18.00;99.90
13186;DHT22;6658;53.080;7.428;2023-07-13T05:17:13;18.80;99.90
13186;DHT22;6658;53.080;7.428;2023-07-13T05:20:00;18.70;99.90
13186;DHT22;6658;53.080;7.428;2023-07-13T05:22:46;18.60;99.90
13186;DHT22;6658;53.080;7.428;2023-07-13T05:25:13;18.50;99.90
13186;DHT22;6658;53.080;7.428;2023-07-13T05:31:18;18.20;99.90
13186;DHT22;6658;53.080;7.428;2023-07-13T05:33:49;18.10;99.90
13186;DHT22;6658;53.080;7.428;2023-07-13T05:39:15;18.40;99.90
13186;DHT22;6658;53.080;7.428;2023-07-13T05:42:07;18.80;99.90
13186;DHT22;6658;53.080;7.428;2023-07-13T05:44:33;19.60;99.90
13186;DHT22;6658;53.080;7.428;2023-07-13T05:47:06;20.20;99.90
13186;DHT22;6658;53.080;7.428;2023-07-13T05:49:45;20.60;99.90
13186;DHT22;6658;53.080;7.428;2023-07-13T05:52:19;21.10;99.90
13186;DHT22;6658;53.080;7.428;2023-07-13T05:54:48;21.50;99.90
13186;DHT22;6658;53.080;7.428;2023-07-13T05:57:13;21.90;99.90
13186;DHT22;6658;53.080;7.428;2023-07-13T05:59:39;22.20;99.90
13186;DHT22;6658;53.080;7.428;2023-07-13T06:02:11;22.30;99.90
13186;DHT22;6658;53.080;7.428;2023-07-13T06:04:37;22.40;99.90
13186;DHT22;6658;53.080;7.428;2023-07-13T06:07:32;22.40;99.90
13186;DHT22;6658;53.080;7.428;2023-07-13T06:09:58;22.60;99.90
13186;DHT22;6658;53.080;7.428;2023-07-13T06:12:25;22.60;99.90
13186;DHT22;6658;53.080;7.428;2023-07-13T06:14:53;22.80;99.90
13186;DHT22;6658;53.080;7.428;2023-07-13T06:17:22;23.00;99.90
13186;DHT22;6658;53.080;7.428;2023-07-13T06:22:39;23.10;99.90
13186;DHT22;6658;53.080;7.428;2023-07-13T06:25:05;23.10;99.90
13186;DHT22;6658;53.080;7.428;2023-07-13T06:27:34;23.10;99.90
13186;DHT22;6658;53.080;7.428;2023-07-13T06:30:06;23.20;99.90
13186;DHT22;6658;53.080;7.428;2023-07-13T06:32:32;23.40;99.90
13186;DHT22;6658;53.080;7.428;2023-07-13T06:34:57;23.40;99.90
13186;DHT22;6658;53.080;7.428;2023-07-13T06:37:23;23.50;99.90
13186;DHT22;6658;53.080;7.428;2023-07-13T06:39:49;23.60;99.90
13186;DHT22;6658;53.080;7.428;2023-07-13T06:42:16;23.60;99.90
13186;DHT22;6658;53.080;7.428;2023-07-13T06:44:42;23.70;99.90
13186;DHT22;6658;53.080;7.428;2023-07-13T06:47:07;23.90;99.90
13186;DHT22;6658;53.080;7.428;2023-07-13T06:49:33;23.80;99.90
13186;DHT22;6658;53.080;7.428;2023-07-13T06:51:59;23.70;99.90
13186;DHT22;6658;53.080;7.428;2023-07-13T06:54:25;23.80;99.90
13186;DHT22;6658;53.080;7.428;2023-07-13T06:56:51;23.70;99.90
13186;DHT22;6658;53.080;7.428;2023-07-13T06:59:16;23.70;99.90
13186;DHT22;6658;53.080;7.428;2023-07-13T07:01:42;23.40;99.90
13186;DHT22;6658;53.080;7.428;2023-07-13T07:04:08;23.50;99.90
13186;DHT22;6658;53.080;7.428;2023-07-13T07:06:34;23.50;99.90
13186;DHT22;6658;53.080;7.428;2023-07-13T07:08:59;23.50;99.90
13186;DHT22;6658;53.080;7.428;2023-07-13T07:11:26;23.60;99.90
13186;DHT22;6658;53.080;7.428;2023-07-13T07:13:52;23.80;99.90
13186;DHT22;6658;53.080;7.428;2023-07-13T07:16:19;24.10;99.90
13186;DHT22;6658;53.080;7.428;2023-07-13T07:18:49;24.40;99.90
13186;DHT22;6658;53.080;7.428;2023-07-13T07:21:15;24.60;99.90
13186;DHT22;6658;53.080;7.428;2023-07-13T07:23:41;24.80;99.90
13186;DHT22;6658;53.080;7.428;2023-07-13T07:26:33;24.80;99.90
13186;DHT22;6658;53.080;7.428;2023-07-13T07:28:59;24.90;99.90
13186;DHT22;6658;53.080;7.428;2023-07-13T07:31:25;25.30;99.90
13186;DHT22;6658;53.080;7.428;2023-07-13T07:33:51;25.50;99.90
13186;DHT22;6658;53.080;7.428;2023-07-13T07:36:17;25.50;99.90
13186;DHT22;6658;53.080;7.428;2023-07-13T07:38:43;25.60;99.90
13186;DHT22;6658;53.080;7.428;2023-07-13T07:41:12;25.60;99.90
13186;DHT22;6658;53.080;7.428;2023-07-13T07:44:14;25.60;99.90
13186;DHT22;6658;53.080;7.428;2023-07-13T07:47:10;26.10;99.90
13186;DHT22;6658;53.080;7.428;2023-07-13T07:49:37;26.30;99.90
13186;DHT22;6658;53.080;7.428;2023-07-13T07:52:04;26.40;99.90
13186;DHT22;6658;53.080;7.428;2023-07-13T07:54:41;26.50;99.90
13186;DHT22;6658;53.080;7.428;2023-07-13T07:57:07;26.50;99.90
13186;DHT22;6658;53.080;7.428;2023-07-13T07:59:33;25.90;99.90
13186;DHT22;6658;53.080;7.428;2023-07-13T08:02:01;25.30;99.90
13186;DHT22;6658;53.080;7.428;2023-07-13T08:04:30;25.00;99.90
13186;DHT22;6658;53.080;7.428;2023-07-13T08:06:56;25.00;99.90
13186;DHT22;6658;53.080;7.428;2023-07-13T08:09:22;25.20;99.90
13186;DHT22;6658;53.080;7.428;2023-07-13T08:11:48;25.10;99.90
13186;DHT22;6658;53.080;7.428;2023-07-13T08:14:19;24.60;99.90
13186;DHT22;6658;53.080;7.428;2023-07-13T08:16:45;24.10;99.90
13186;DHT22;6658;53.080;7.428;2023-07-13T08:19:11;24.30;99.90
13186;DHT22;6658;53.080;7.428;2023-07-13T08:21:37;24.20;99.90
13186;DHT22;6658;53.080;7.428;2023-07-13T08:24:35;24.30;99.90
13186;DHT22;6658;53.080;7.428;2023-07-13T08:27:01;24.30;99.90
13186;DHT22;6658;53.080;7.428;2023-07-13T08:29:30;24.20;99.90
13186;DHT22;6658;53.080;7.428;2023-07-13T08:31:58;24.40;99.90
13186;DHT22;6658;53.080;7.428;2023-07-13T08:34:24;24.70;99.90
13186;DHT22;6658;53.080;7.428;2023-07-13T08:36:50;24.90;99.90
13186;DHT22;6658;53.080;7.428;2023-07-13T08:41:58;24.90;99.90
13186;DHT22;6658;53.080;7.428;2023-07-13T08:45:06;25.00;99.90
13186;DHT22;6658;53.080;7.428;2023-07-13T08:47:44;24.80;99.90
13186;DHT22;6658;53.080;7.428;2023-07-13T08:50:18;24.70;99.90
13186;DHT22;6658;53.080;7.428;2023-07-13T08:52:45;24.80;99.90
13186;DHT22;6658;53.080;7.428;2023-07-13T08:55:15;24.70;99.90
13186;DHT22;6658;53.080;7.428;2023-07-13T08:57:47;24.50;99.90
13186;DHT22;6658;53.080;7.428;2023-07-13T09:00:14;24.30;99.90
13186;DHT22;6658;53.080;7.428;2023-07-13T09:05:42;23.50;99.90
13186;DHT22;6658;53.080;7.428;2023-07-13T09:12:21;22.10;99.90
13186;DHT22;6658;53.080;7.428;2023-07-13T09:14:35;21.50;99.90
13186;DHT22;6658;53.080;7.428;2023-07-13T09:17:49;21.10;99.90
13186;DHT22;6658;53.080;7.428;2023-07-13T09:20:31;20.80;99.90
13186;DHT22;6658;53.080;7.428;2023-07-13T09:23:00;20.50;99.90
13186;DHT22;6658;53.080;7.428;2023-07-13T09:25:32;20.30;99.90
13186;DHT22;6658;53.080;7.428;2023-07-13T09:31:04;20.20;99.90
13186;DHT22;6658;53.080;7.428;2023-07-13T09:33:31;20.30;99.90
13186;DHT22;6658;53.080;7.428;2023-07-13T09:35:58;20.40;99.90
13186;DHT22;6658;53.080;7.428;2023-07-13T09:38:27;20.50;99.90
13186;DHT22;6658;53.080;7.428;2023-07-13T09:41:19;20.30;99.90
13186;DHT22;6658;53.080;7.428;2023-07-13T09:44:15;19.80;99.90
13186;DHT22;6658;53.080;7.428;2023-07-13T09:46:55;18.90;99.90
13186;DHT22;6658;53.080;7.428;2023-07-13T09:49:25;18.20;99.90
13186;DHT22;6658;53.080;7.428;2023-07-13T09:52:09;17.60;99.90
13186;DHT22;6658;53.080;7.428;2023-07-13T09:54:36;17.10;99.90
13186;DHT22;6658;53.080;7.428;2023-07-13T09:57:14;16.70;99.90
13186;DHT22;6658;53.080;7.428;2023-07-13T09:59:51;16.40;99.90
13186;DHT22;6658;53.080;7.428;2023-07-13T10:02:37;16.00;99.90
13186;DHT22;6658;53.080;7.428;2023-07-13T10:05:13;15.70;99.90
13186;DHT22;6658;53.080;7.428;2023-07-13T10:07:43;15.60;99.90
13186;DHT22;6658;53.080;7.428;2023-07-13T10:10:18;15.60;99.90
13186;DHT22;6658;53.080;7.428;2023-07-13T10:12:44;15.80;99.90
13186;DHT22;6658;53.080;7.428;2023-07-13T10:15:36;16.00;99.90
13186;DHT22;6658;53.080;7.428;2023-07-13T10:18:11;16.30;99.90
13186;DHT22;6658;53.080;7.428;2023-07-13T10:20:37;16.60;99.90
13186;DHT22;6658;53.080;7.428;2023-07-13T10:23:13;16.90;99.90
13186;DHT22;6658;53.080;7.428;2023-07-13T10:25:43;17.10;99.90
13186;DHT22;6658;53.080;7.428;2023-07-13T10:28:27;17.30;99.90
13186;DHT22;6658;53.080;7.428;2023-07-13T10:30:56;17.50;99.90
13186;DHT22;6658;53.080;7.428;2023-07-13T10:33:23;17.70;99.90
13186;DHT22;6658;53.080;7.428;2023-07-13T10:35:52;18.00;99.90
13186;DHT22;6658;53.080;7.428;2023-07-13T10:38:24;18.10;99.90
13186;DHT22;6658;53.080;7.428;2023-07-13T10:41:00;18.20;99.90
13186;DHT22;6658;53.080;7.428;2023-07-13T10:43:39;18.20;99.90
13186;DHT22;6658;53.080;7.428;2023-07-13T10:46:08;18.30;99.90
13186;DHT22;6658;53.080;7.428;2023-07-13T10:48:43;18.40;99.90
13186;DHT22;6658;53.080;7.428;2023-07-13T10:51:12;18.60;99.90
13186;DHT22;6658;53.080;7.428;2023-07-13T10:53:38;19.00;99.90
13186;DHT22;6658;53.080;7.428;2023-07-13T10:59:26;19.40;99.90
13186;DHT22;6658;53.080;7.428;2023-07-13T11:02:21;19.50;99.90
13186;DHT22;6658;53.080;7.428;2023-07-13T11:04:48;19.70;99.90
13186;DHT22;6658;53.080;7.428;2023-07-13T11:07:22;19.90;99.90
13186;DHT22;6658;53.080;7.428;2023-07-13T11:09:57;20.30;99.90
13186;DHT22;6658;53.080;7.428;2023-07-13T11:12:27;20.70;99.90
13186;DHT22;6658;53.080;7.428;2023-07-13T11:17:38;21.20;99.90
13186;DHT22;6658;53.080;7.428;2023-07-13T11:20:34;21.60;99.90
13186;DHT22;6658;53.080;7.428;2023-07-13T11:23:17;22.30;99.90
13186;DHT22;6658;53.080;7.428;2023-07-13T11:25:51;22.70;99.90
13186;DHT22;6658;53.080;7.428;2023-07-13T11:28:29;23.00;99.90
13186;DHT22;6658;53.080;7.428;2023-07-13T11:31:12;22.90;99.90
13186;DHT22;6658;53.080;7.428;2023-07-13T11:36:37;23.00;99.90
13186;DHT22;6658;53.080;7.428;2023-07-13T11:41:50;23.20;99.90
13186;DHT22;6658;53.080;7.428;2023-07-13T11:44:19;23.60;99.90
13186;DHT22;6658;53.080;7.428;2023-07-13T11:46:51;23.50;99.90
13186;DHT22;6658;53.080;7.428;2023-07-13T11:49:23;23.20;99.90
13186;DHT22;6658;53.080;7.428;2023-07-13T11:51:52;22.70;99.90
13186;DHT22;6658;53.080;7.428;2023-07-13T11:54:30;22.20;99.90
13186;DHT22;6658;53.080;7.428;2023-07-13T11:57:03;21.90;99.90
13186;DHT22;6658;53.080;7.428;2023-07-13T11:59:32;21.60;99.90
13186;DHT22;6658;53.080;7.428;2023-07-13T12:02:28;21.30;99.90
13186;DHT22;6658;53.080;7.428;2023-07-13T12:04:55;21.30;99.90
13186;DHT22;6658;53.080;7.428;2023-07-13T12:07:22;21.30;99.90
13186;DHT22;6658;53.080;7.428;2023-07-13T12:09:49;21.30;99.90
13186;DHT22;6658;53.080;7.428;2023-07-13T12:12:20;21.10;99.90
13186;DHT22;6658;53.080;7.428;2023-07-13T12:14:51;21.00;99.90
13186;DHT22;6658;53.080;7.428;2023-07-13T12:17:23;20.70;99.90
13186;DHT22;6658;53.080;7.428;2023-07-13T12:19:51;20.50;99.90
13186;DHT22;6658;53.080;7.428;2023-07-13T12:22:19;20.30;99.90
13186;DHT22;6658;53.080;7.428;2023-07-13T12:24:48;20.10;99.90
13186;DHT22;6658;53.080;7.428;2023-07-13T12:27:33;19.80;99.90
13186;DHT22;6658;53.080;7.428;2023-07-13T12:30:02;19.70;99.90
13186;DHT22;6658;53.080;7.428;2023-07-13T12:32:28;19.60;99.90
13186;DHT22;6658;53.080;7.428;2023-07-13T12:35:04;19.60;99.90
13186;DHT22;6658;53.080;7.428;2023-07-13T12:37:38;19.80;99.90
13186;DHT22;6658;53.080;7.428;2023-07-13T12:40:17;20.20;99.90
13186;DHT22;6658;53.080;7.428;2023-07-13T12:42:46;20.80;99.90
13186;DHT22;6658;53.080;7.428;2023-07-13T12:45:18;20.90;99.90
13186;DHT22;6658;53.080;7.428;2023-07-13T12:47:53;21.00;99.90
13186;DHT22;6658;53.080;7.428;2023-07-13T12:50:47;21.10;99.90
13186;DHT22;6658;53.080;7.428;2023-07-13T12:53:18;21.40;99.90
13186;DHT22;6658;53.080;7.428;2023-07-13T12:55:52;21.60;99.90
13186;DHT22;6658;53.080;7.428;2023-07-13T12:58:27;21.70;99.90
13186;DHT22;6658;53.080;7.428;2023-07-13T13:00:58;21.70;99.90
13186;DHT22;6658;53.080;7.428;2023-07-13T13:08:37;22.20;99.90
13186;DHT22;6658;53.080;7.428;2023-07-13T13:11:06;22.20;99.90
13186;DHT22;6658;53.080;7.428;2023-07-13T13:13:34;22.30;99.90
13186;DHT22;6658;53.080;7.428;2023-07-13T13:18:57;22.50;99.90
13186;DHT22;6658;53.080;7.428;2023-07-13T13:21:28;22.60;99.90
13186;DHT22;6658;53.080;7.428;2023-07-13T13:23:54;22.40;99.90
13186;DHT22;6658;53.080;7.428;2023-07-13T13:26:22;22.40;99.90
13186;DHT22;6658;53.080;7.428;2023-07-13T13:28:51;22.40;99.90
13186;DHT22;6658;53.080;7.428;2023-07-13T13:31:25;22.50;99.90
13186;DHT22;6658;53.080;7.428;2023-07-13T13:33:54;22.70;99.90
13186;DHT22;6658;53.080;7.428;2023-07-13T13:36:22;22.80;99.90
13186;DHT22;6658;53.080;7.428;2023-07-13T13:38:51;22.80;99.90
13186;DHT22;6658;53.080;7.428;2023-07-13T13:41:17;22.70;99.90
13186;DHT22;6658;53.080;7.428;2023-07-13T13:43:43;22.80;99.90
13186;DHT22;6658;53.080;7.428;2023-07-13T13:46:20;22.80;99.90
13186;DHT22;6658;53.080;7.428;2023-07-13T13:48:46;22.80;99.90
13186;DHT22;6658;53.080;7.428;2023-07-13T13:51:20;23.00;99.90
13186;DHT22;6658;53.080;7.428;2023-07-13T13:53:47;23.10;99.90
13186;DHT22;6658;53.080;7.428;2023-07-13T13:56:14;23.00;99.90
13186;DHT22;6658;53.080;7.428;2023-07-13T13:58:40;22.90;99.90
13186;DHT22;6658;53.080;7.428;2023-07-13T14:01:21;22.80;99.90
13186;DHT22;6658;53.080;7.428;2023-07-13T14:04:00;22.80;99.90
13186;DHT22;6658;53.080;7.428;2023-07-13T14:06:26;22.70;99.90
13186;DHT22;6658;53.080;7.428;2023-07-13T14:08:54;22.70;99.90
13186;DHT22;6658;53.080;7.428;2023-07-13T14:11:21;22.60;99.90
13186;DHT22;6658;53.080;7.428;2023-07-13T14:13:53;22.60;99.90
13186;DHT22;6658;53.080;7.428;2023-07-13T14:16:29;22.50;99.90
13186;DHT22;6658;53.080;7.428;2023-07-13T14:19:00;22.40;99.90
13186;DHT22;6658;53.080;7.428;2023-07-13T14:21:27;22.50;99.90
13186;DHT22;6658;53.080;7.428;2023-07-13T14:24:23;22.70;99.90
13186;DHT22;6658;53.080;7.428;2023-07-13T14:26:49;22.80;99.90
13186;DHT22;6658;53.080;7.428;2023-07-13T14:29:22;22.60;99.90
13186;DHT22;6658;53.080;7.428;2023-07-13T14:31:51;22.40;99.90
13186;DHT22;6658;53.080;7.428;2023-07-13T14:34:22;22.40;99.90
13186;DHT22;6658;53.080;7.428;2023-07-13T14:36:49;22.20;99.90
13186;DHT22;6658;53.080;7.428;2023-07-13T14:39:19;22.40;99.90
13186;DHT22;6658;53.080;7.428;2023-07-13T14:41:53;22.50;99.90
13186;DHT22;6658;53.080;7.428;2023-07-13T14:44:51;22.70;99.90
13186;DHT22;6658;53.080;7.428;2023-07-13T14:47:18;22.80;99.90
13186;DHT22;6658;53.080;7.428;2023-07-13T14:49:44;22.90;99.90
13186;DHT22;6658;53.080;7.428;2023-07-13T14:52:20;22.80;99.90
13186;DHT22;6658;53.080;7.428;2023-07-13T14:54:47;22.60;99.90
13186;DHT22;6658;53.080;7.428;2023-07-13T14:57:17;22.70;99.90
13186;DHT22;6658;53.080;7.428;2023-07-13T14:59:44;22.90;99.90
13186;DHT22;6658;53.080;7.428;2023-07-13T15:02:24;23.00;99.90
13186;DHT22;6658;53.080;7.428;2023-07-13T15:05:00;22.80;99.90
13186;DHT22;6658;53.080;7.428;2023-07-13T15:07:51;22.80;99.90
13186;DHT22;6658;53.080;7.428;2023-07-13T15:10:32;22.90;99.90
13186;DHT22;6658;53.080;7.428;2023-07-13T15:13:24;23.20;99.90
13186;DHT22;6658;53.080;7.428;2023-07-13T15:15:51;23.30;99.90
13186;DHT22;6658;53.080;7.428;2023-07-13T15:18:20;23.30;99.90
13186;DHT22;6658;53.080;7.428;2023-07-13T15:20:47;23.40;99.90
13186;DHT22;6658;53.080;7.428;2023-07-13T15:23:15;23.50;99.90
13186;DHT22;6658;53.080;7.428;2023-07-13T15:25:48;23.40;99.90
13186;DHT22;6658;53.080;7.428;2023-07-13T15:31:31;23.30;99.90
13186;DHT22;6658;53.080;7.428;2023-07-13T15:34:23;22.90;99.90
13186;DHT22;6658;53.080;7.428;2023-07-13T15:36:52;22.70;99.90
13186;DHT22;6658;53.080;7.428;2023-07-13T15:39:18;22.70;99.90
13186;DHT22;6658;53.080;7.428;2023-07-13T15:41:45;22.70;99.90
13186;DHT22;6658;53.080;7.428;2023-07-13T15:44:24;22.70;99.90
13186;DHT22;6658;53.080;7.428;2023-07-13T15:46:51;22.70;99.90
13186;DHT22;6658;53.080;7.428;2023-07-13T15:49:26;22.60;99.90
13186;DHT22;6658;53.080;7.428;2023-07-13T15:51:52;22.50;99.90
13186;DHT22;6658;53.080;7.428;2023-07-13T15:54:25;22.60;99.90
13186;DHT22;6658;53.080;7.428;2023-07-13T15:56:57;22.70;99.90
13186;DHT22;6658;53.080;7.428;2023-07-13T15:59:28;22.80;99.90
13186;DHT22;6658;53.080;7.428;2023-07-13T16:01:57;22.90;99.90
13186;DHT22;6658;53.080;7.428;2023-07-13T16:04:23;22.90;99.90
13186;DHT22;6658;53.080;7.428;2023-07-13T16:06:49;22.90;99.90
13186;DHT22;6658;53.080;7.428;2023-07-13T16:09:36;22.80;99.90
13186;DHT22;6658;53.080;7.428;2023-07-13T16:12:11;22.60;99.90
13186;DHT22;6658;53.080;7.428;2023-07-13T16:14:40;22.40;99.90
13186;DHT22;6658;53.080;7.428;2023-07-13T16:17:13;22.40;99.90
13186;DHT22;6658;53.080;7.428;2023-07-13T16:19:41;22.60;99.90
13186;DHT22;6658;53.080;7.428;2023-07-13T16:22:18;22.70;99.90
13186;DHT22;6658;53.080;7.428;2023-07-13T16:24:50;22.70;99.90
13186;DHT22;6658;53.080;7.428;2023-07-13T16:27:20;22.70;99.90
13186;DHT22;6658;53.080;7.428;2023-07-13T16:29:49;22.70;99.90
13186;DHT22;6658;53.080;7.428;2023-07-13T16:32:20;22.70;99.90
13186;DHT22;6658;53.080;7.428;2023-07-13T16:34:52;22.60;99.90
13186;DHT22;6658;53.080;7.428;2023-07-13T16:37:26;22.50;99.90
13186;DHT22;6658;53.080;7.428;2023-07-13T16:39:56;22.60;99.90
13186;DHT22;6658;53.080;7.428;2023-07-13T16:42:26;22.80;99.90
13186;DHT22;6658;53.080;7.428;2023-07-13T16:44:55;22.80;99.90
13186;DHT22;6658;53.080;7.428;2023-07-13T16:47:30;22.90;99.90
13186;DHT22;6658;53.080;7.428;2023-07-13T16:50:07;23.10;99.90
13186;DHT22;6658;53.080;7.428;2023-07-13T16:52:37;23.30;99.90
13186;DHT22;6658;53.080;7.428;2023-07-13T16:55:21;23.50;99.90
13186;DHT22;6658;53.080;7.428;2023-07-13T16:57:53;23.60;99.90
13186;DHT22;6658;53.080;7.428;2023-07-13T17:00:23;23.60;99.90
13186;DHT22;6658;53.080;7.428;2023-07-13T17:03:03;23.50;99.90
13186;DHT22;6658;53.080;7.428;2023-07-13T17:05:40;23.20;99.90
13186;DHT22;6658;53.080;7.428;2023-07-13T17:08:23;22.90;99.90
13186;DHT22;6658;53.080;7.428;2023-07-13T17:10:53;22.60;99.90
13186;DHT22;6658;53.080;7.428;2023-07-13T17:13:23;22.70;99.90
13186;DHT22;6658;53.080;7.428;2023-07-13T17:15:51;22.90;99.90
13186;DHT22;6658;53.080;7.428;2023-07-13T17:18:29;23.20;99.90
13186;DHT22;6658;53.080;7.428;2023-07-13T17:21:02;23.50;99.90
13186;DHT22;6658;53.080;7.428;2023-07-13T17:23:30;23.60;99.90
13186;DHT22;6658;53.080;7.428;2023-07-13T17:25:58;23.60;99.90
13186;DHT22;6658;53.080;7.428;2023-07-13T17:28:28;23.70;99.90
13186;DHT22;6658;53.080;7.428;2023-07-13T17:31:31;23.70;99.90
13186;DHT22;6658;53.080;7.428;2023-07-13T17:34:13;23.80;99.90
13186;DHT22;6658;53.080;7.428;2023-07-13T17:36:52;23.80;99.90
13186;DHT22;6658;53.080;7.428;2023-07-13T17:39:41;23.90;99.90
13186;DHT22;6658;53.080;7.428;2023-07-13T17:45:29;23.90;99.90
13186;DHT22;6658;53.080;7.428;2023-07-13T17:47:56;23.80;99.90
13186;DHT22;6658;53.080;7.428;2023-07-13T17:50:34;23.70;99.90
13186;DHT22;6658;53.080;7.428;2023-07-13T17:53:20;23.50;99.90
13186;DHT22;6658;53.080;7.428;2023-07-13T17:56:04;23.20;99.90
13186;DHT22;6658;53.080;7.428;2023-07-13T17:59:06;23.00;99.90
13186;DHT22;6658;53.080;7.428;2023-07-13T18:01:58;22.80;99.90
13186;DHT22;6658;53.080;7.428;2023-07-13T18:04:38;22.50;99.90
13186;DHT22;6658;53.080;7.428;2023-07-13T18:07:17;22.40;99.90
13186;DHT22;6658;53.080;7.428;2023-07-13T18:09:51;22.20;99.90
13186;DHT22;6658;53.080;7.428;2023-07-13T18:12:19;22.10;99.90
13186;DHT22;6658;53.080;7.428;2023-07-13T18:14:44;22.00;99.90
13186;DHT22;6658;53.080;7.428;2023-07-13T18:17:13;21.80;99.90
13186;DHT22;6658;53.080;7.428;2023-07-13T18:19:52;21.60;99.90
13186;DHT22;6658;53.080;7.428;2023-07-13T18:22:26;21.60;99.90
13186;DHT22;6658;53.080;7.428;2023-07-13T18:24:52;21.60;99.90
13186;DHT22;6658;53.080;7.428;2023-07-13T18:27:23;21.60;99.90
13186;DHT22;6658;53.080;7.428;2023-07-13T18:29:49;21.60;99.90
13186;DHT22;6658;53.080;7.428;2023-07-13T18:32:18;21.60;99.90
13186;DHT22;6658;53.080;7.428;2023-07-13T18:34:47;21.60;99.90
13186;DHT22;6658;53.080;7.428;2023-07-13T18:37:25;21.50;99.90
13186;DHT22;6658;53.080;7.428;2023-07-13T18:39:52;21.40;99.90
13186;DHT22;6658;53.080;7.428;2023-07-13T18:42:21;21.30;99.90
13186;DHT22;6658;53.080;7.428;2023-07-13T18:45:28;21.20;99.90
13186;DHT22;6658;53.080;7.428;2023-07-13T18:47:59;21.00;99.90
13186;DHT22;6658;53.080;7.428;2023-07-13T18:53:53;20.70;99.90
13186;DHT22;6658;53.080;7.428;2023-07-13T18:57:27;20.50;99.90
13186;DHT22;6658;53.080;7.428;2023-07-13T19:00:28;20.30;99.90
13186;DHT22;6658;53.080;7.428;2023-07-13T19:09:57;19.80;99.90
13186;DHT22;6658;53.080;7.428;2023-07-13T20:16:03;18.70;99.90
13186;DHT22;6658;53.080;7.428;2023-07-13T20:28:54;18.20;99.90
13186;DHT22;6658;53.080;7.428;2023-07-13T20:57:45;16.70;99.90
13186;DHT22;6658;53.080;7.428;2023-07-13T21:42:21;16.70;99.90
13186;DHT22;6658;53.080;7.428;2023-07-13T21:59:31;16.60;99.90
13186;DHT22;6658;53.080;7.428;2023-07-13T22:02:55;16.50;99.90
13186;DHT22;6658;53.080;7.428;2023-07-13T22:58:15;15.00;99.90
13186;DHT22;6658;53.080;7.428;2023-07-13T23:01:39;15.00;99.90
13186;DHT22;6658;53.080;7.428;2023-07-13T23:04:56;14.90;99.90
13186;DHT22;6658;53.080;7.428;2023-07-13T23:14:24;14.70;99.90
13186;DHT22;6658;53.080;7.428;2023-07-13T23:20:59;14.60;99.90
13186;DHT22;6658;53.080;7.428;2023-07-13T23:38:47;14.50;99.90
13186;DHT22;6658;53.080;7.428;2023-07-13T23:41:24;14.60;99.90
13186;DHT22;6658;53.080;7.428;2023-07-13T23:44:39;14.60;99.90
